createdAt,value
2018-12-03T00:00:10.765Z,41.83
2018-12-03T00:02:38.537Z,41.63
2018-12-03T00:05:06.476Z,39.03
2018-12-03T00:07:34.190Z,39.17
2018-12-03T00:10:01.822Z,39.67
2018-12-03T00:12:29.856Z,39.70
2018-12-03T00:14:57.545Z,38.77
2018-12-03T00:17:25.588Z,39.47
2018-12-03T00:19:53.198Z,38.60
2018-12-03T00:22:20.806Z,39.97
2018-12-03T00:24:48.464Z,39.57
2018-12-03T00:27:16.285Z,37.93
2018-12-03T00:29:43.905Z,38.20
2018-12-03T00:32:11.709Z,37.57
2018-12-03T00:34:39.557Z,38.87
2018-12-03T00:37:07.293Z,40.00
2018-12-03T00:39:35.826Z,38.47
2018-12-03T00:42:03.601Z,37.60
2018-12-03T00:44:31.347Z,37.97
2018-12-03T00:46:58.961Z,38.20
2018-12-03T00:49:26.905Z,38.50
2018-12-03T00:51:54.566Z,40.17
2018-12-03T00:54:22.399Z,39.87
2018-12-03T00:56:50.211Z,40.97
2018-12-03T00:59:17.874Z,38.63
2018-12-03T01:01:45.584Z,40.50
2018-12-03T01:04:13.364Z,40.03
2018-12-03T01:06:41.080Z,39.87
2018-12-03T01:09:09.020Z,39.93
2018-12-03T01:11:37.094Z,38.03
2018-12-03T01:14:04.854Z,35.93
2018-12-03T01:16:32.561Z,35.70
2018-12-03T01:19:00.325Z,35.17
2018-12-03T01:21:28.035Z,32.77
2018-12-03T01:23:55.940Z,33.40
2018-12-03T01:26:23.816Z,32.33
2018-12-03T01:28:51.585Z,31.60
2018-12-03T01:31:19.481Z,31.37
2018-12-03T01:33:47.247Z,31.57
2018-12-03T01:36:15.052Z,30.83
2018-12-03T01:38:42.946Z,30.03
2018-12-03T01:41:10.823Z,29.57
2018-12-03T01:43:38.553Z,29.43
2018-12-03T01:46:06.305Z,27.53
2018-12-03T01:48:34.107Z,28.53
2018-12-03T01:51:01.956Z,28.97
2018-12-03T01:53:29.663Z,27.60
2018-12-03T01:55:57.362Z,29.03
2018-12-03T01:58:25.131Z,28.83
2018-12-03T02:00:53.857Z,27.37
2018-12-03T02:03:21.561Z,26.70
2018-12-03T02:05:49.243Z,27.97
2018-12-03T02:08:16.953Z,27.47
2018-12-03T02:10:44.961Z,27.60
2018-12-03T02:13:12.737Z,26.17
2018-12-03T02:15:40.469Z,26.43
2018-12-03T02:18:08.302Z,26.50
2018-12-03T02:20:36.252Z,27.17
2018-12-03T02:23:04.102Z,25.13
2018-12-03T02:25:31.901Z,27.53
2018-12-03T02:27:59.617Z,25.50
2018-12-03T02:30:27.353Z,25.93
2018-12-03T02:32:55.107Z,25.07
2018-12-03T02:35:22.843Z,25.77
2018-12-03T02:37:50.520Z,24.83
2018-12-03T02:40:18.487Z,24.97
2018-12-03T02:42:46.273Z,24.03
2018-12-03T02:45:14.460Z,23.37
2018-12-03T02:47:42.295Z,24.23
2018-12-03T02:50:11.989Z,23.47
2018-12-03T02:52:40.125Z,22.43
2018-12-03T02:55:09.110Z,22.50
2018-12-03T02:57:36.980Z,22.03
2018-12-03T03:00:08.411Z,22.07
2018-12-03T03:02:36.162Z,22.40
2018-12-03T03:05:04.886Z,21.60
2018-12-03T03:07:32.705Z,22.40
2018-12-03T03:10:00.491Z,21.93
2018-12-03T03:12:28.268Z,21.03
2018-12-03T03:14:56.121Z,21.00
2018-12-03T03:17:23.995Z,20.80
2018-12-03T03:19:51.787Z,21.70
2018-12-03T03:22:19.502Z,20.73
2018-12-03T03:24:47.148Z,20.23
2018-12-03T03:27:15.171Z,21.23
2018-12-03T03:29:43.124Z,19.50
2018-12-03T03:32:11.105Z,20.33
2018-12-03T03:34:39.009Z,19.67
2018-12-03T03:37:07.052Z,23.63
2018-12-03T03:39:35.168Z,19.83
2018-12-03T03:42:03.328Z,19.73
2018-12-03T03:44:31.078Z,19.70
2018-12-03T03:46:59.040Z,19.37
2018-12-03T03:49:27.075Z,20.10
2018-12-03T03:51:55.152Z,20.50
2018-12-03T03:54:25.512Z,20.20
2018-12-03T03:56:51.145Z,19.83
2018-12-03T03:59:19.152Z,19.67
2018-12-03T04:01:46.964Z,20.40
2018-12-03T04:04:14.989Z,19.07
2018-12-03T04:06:42.866Z,19.30
2018-12-03T04:09:10.699Z,19.70
2018-12-03T04:11:38.360Z,18.37
2018-12-03T04:14:06.426Z,20.47
2018-12-03T04:16:34.230Z,20.00
2018-12-03T04:19:02.134Z,20.37
2018-12-03T04:21:29.943Z,21.53
2018-12-03T04:23:57.791Z,20.77
2018-12-03T04:26:26.029Z,21.40
2018-12-03T04:28:53.855Z,20.63
2018-12-03T04:31:22.082Z,19.97
2018-12-03T04:33:50.075Z,20.93
2018-12-03T04:36:18.244Z,19.87
2018-12-03T04:38:46.292Z,19.77
2018-12-03T04:41:14.157Z,20.93
2018-12-03T04:43:42.701Z,20.27
2018-12-03T04:46:10.524Z,20.80
2018-12-03T04:48:38.327Z,20.80
2018-12-03T04:51:06.153Z,21.27
2018-12-03T04:53:33.998Z,20.20
2018-12-03T04:56:01.994Z,21.50
2018-12-03T04:58:29.857Z,21.17
2018-12-03T05:00:57.709Z,21.33
2018-12-03T05:03:25.808Z,20.37
2018-12-03T05:05:53.610Z,21.00
2018-12-03T05:08:21.507Z,20.63
2018-12-03T05:10:49.241Z,19.77
2018-12-03T05:13:17.091Z,19.77
2018-12-03T05:15:44.897Z,19.80
2018-12-03T05:18:12.922Z,20.10
2018-12-03T05:20:41.095Z,20.30
2018-12-03T05:23:08.930Z,20.00
2018-12-03T05:25:51.846Z,21.40
2018-12-03T05:28:20.187Z,19.27
2018-12-03T05:30:47.975Z,19.53
2018-12-03T05:33:15.836Z,20.03
2018-12-03T05:35:43.729Z,19.03
2018-12-03T05:38:11.583Z,19.33
2018-12-03T05:40:39.627Z,115.83
2018-12-03T05:43:07.583Z,98.73
2018-12-03T05:45:35.541Z,47.17
2018-12-03T05:48:03.224Z,24.53
2018-12-03T05:50:30.975Z,23.07
2018-12-03T05:52:58.933Z,21.80
2018-12-03T05:55:26.617Z,21.30
2018-12-03T05:57:54.411Z,21.67
2018-12-03T06:00:23.151Z,21.00
2018-12-03T06:02:51.122Z,20.27
2018-12-03T06:05:19.018Z,21.30
2018-12-03T06:07:46.868Z,21.30
2018-12-03T06:10:17.306Z,22.07
2018-12-03T06:12:45.387Z,21.70
2018-12-03T06:15:14.479Z,21.30
2018-12-03T06:17:42.383Z,21.00
2018-12-03T06:20:15.324Z,21.63
2018-12-03T06:22:43.223Z,21.70
2018-12-03T06:25:13.453Z,21.50
2018-12-03T06:27:41.509Z,22.50
2018-12-03T06:30:16.185Z,23.77
2018-12-03T06:32:44.035Z,23.67
2018-12-03T06:35:12.920Z,22.53
2018-12-03T06:37:40.989Z,22.53
2018-12-03T06:40:13.060Z,23.07
2018-12-03T06:42:41.124Z,22.50
2018-12-03T06:45:11.960Z,22.03
2018-12-03T06:47:43.087Z,22.30
2018-12-03T06:50:11.239Z,22.10
2018-12-03T06:52:39.293Z,22.10
2018-12-03T06:55:08.693Z,20.20
2018-12-03T06:57:36.883Z,21.00
2018-12-03T07:00:11.230Z,21.23
2018-12-03T07:02:39.237Z,19.77
2018-12-03T07:05:08.419Z,22.20
2018-12-03T07:07:36.864Z,20.00
2018-12-03T07:10:10.608Z,20.00
2018-12-03T07:12:38.544Z,21.10
2018-12-03T07:15:08.704Z,20.77
2018-12-03T07:17:36.521Z,21.13
2018-12-03T07:20:09.594Z,20.47
2018-12-03T07:22:37.706Z,21.07
2018-12-03T07:25:07.100Z,21.47
2018-12-03T07:27:35.316Z,21.43
2018-12-03T07:30:04.060Z,21.63
2018-12-03T07:32:32.092Z,22.63
2018-12-03T07:34:59.895Z,21.10
2018-12-03T07:37:27.878Z,21.13
2018-12-03T07:39:55.734Z,21.30
2018-12-03T07:42:23.741Z,21.43
2018-12-03T07:44:51.958Z,19.60
2018-12-03T07:47:19.974Z,20.97
2018-12-03T07:49:47.783Z,21.10
2018-12-03T07:52:15.568Z,20.50
2018-12-03T07:54:43.693Z,20.13
2018-12-03T07:57:11.459Z,19.47
2018-12-03T07:59:39.407Z,19.00
2018-12-03T08:02:07.631Z,19.07
2018-12-03T08:04:35.526Z,19.20
2018-12-03T08:07:03.406Z,18.30
2018-12-03T08:09:31.423Z,18.13
2018-12-03T08:11:59.217Z,18.80
2018-12-03T08:14:27.094Z,18.23
2018-12-03T08:16:54.905Z,15.43
2018-12-03T08:19:22.601Z,16.20
2018-12-03T08:21:50.237Z,16.30
2018-12-03T08:24:18.054Z,15.70
2018-12-03T08:26:45.782Z,16.07
2018-12-03T08:29:13.551Z,15.63
2018-12-03T08:31:41.374Z,15.90
2018-12-03T08:34:09.191Z,14.83
2018-12-03T08:36:36.885Z,14.80
2018-12-03T08:39:07.956Z,15.93
2018-12-03T08:41:35.689Z,15.90
2018-12-03T08:44:03.513Z,15.73
2018-12-03T08:46:31.293Z,17.70
2018-12-03T08:48:59.222Z,16.53
2018-12-03T08:51:26.851Z,15.20
2018-12-03T08:53:54.589Z,16.90
2018-12-03T08:56:22.322Z,16.80
2018-12-03T08:58:50.000Z,17.03
2018-12-03T09:01:19.588Z,17.43
2018-12-03T09:03:53.410Z,17.50
2018-12-03T09:06:21.140Z,17.33
2018-12-03T09:08:49.974Z,15.63
2018-12-03T09:11:19.182Z,16.43
2018-12-03T09:13:47.080Z,17.73
2018-12-03T09:16:14.789Z,16.33
2018-12-03T09:18:42.419Z,17.40
2018-12-03T09:21:12.490Z,17.37
2018-12-03T09:23:41.421Z,17.03
2018-12-03T09:26:09.717Z,16.67
2018-12-03T09:28:37.509Z,17.67
2018-12-03T09:31:05.496Z,16.53
2018-12-03T09:33:33.336Z,16.20
2018-12-03T09:36:01.050Z,16.50
2018-12-03T09:38:28.969Z,17.13
2018-12-03T09:40:59.058Z,16.97
2018-12-03T09:43:27.457Z,17.47
2018-12-03T09:45:55.490Z,18.67
2018-12-03T09:48:23.273Z,17.67
2018-12-03T09:50:50.967Z,17.40
2018-12-03T09:53:18.834Z,18.60
2018-12-03T09:55:46.534Z,19.50
2018-12-03T09:58:16.697Z,19.83
2018-12-03T10:00:44.474Z,19.07
2018-12-03T10:03:29.520Z,18.60
2018-12-03T10:05:58.983Z,19.63
2018-12-03T10:08:29.015Z,23.57
2018-12-03T10:10:57.920Z,21.80
2018-12-03T10:13:26.745Z,23.30
2018-12-03T10:15:54.409Z,23.33
2018-12-03T10:18:22.218Z,23.07
2018-12-03T10:20:51.849Z,22.00
2018-12-03T10:23:19.765Z,23.83
2018-12-03T10:25:49.458Z,21.73
2018-12-03T10:28:17.164Z,22.03
2018-12-03T10:30:44.946Z,22.73
2018-12-03T10:33:17.976Z,23.77
2018-12-03T10:35:45.960Z,22.00
2018-12-03T10:38:24.495Z,21.67
2018-12-03T10:40:57.294Z,22.07
2018-12-03T10:43:25.004Z,21.70
2018-12-03T10:45:52.834Z,23.10
2018-12-03T10:48:20.722Z,25.27
2018-12-03T10:50:48.529Z,24.97
2018-12-03T10:53:18.453Z,23.70
2018-12-03T10:55:46.427Z,24.90
2018-12-03T10:58:14.707Z,24.67
2018-12-03T11:00:48.372Z,25.20
2018-12-03T11:03:22.004Z,24.87
2018-12-03T11:05:55.617Z,23.33
2018-12-03T11:08:23.806Z,23.60
2018-12-03T11:10:53.318Z,23.90
2018-12-03T11:13:21.292Z,23.23
2018-12-03T11:15:49.216Z,24.60
2018-12-03T11:18:17.211Z,23.03
2018-12-03T11:20:45.133Z,24.23
2018-12-03T11:23:18.278Z,22.93
2018-12-03T11:25:46.189Z,23.30
2018-12-03T11:28:15.187Z,25.30
2018-12-03T11:30:51.226Z,24.97
2018-12-03T11:33:24.493Z,23.23
2018-12-03T11:35:54.411Z,23.67
2018-12-03T11:38:28.390Z,23.50
2018-12-03T11:40:56.709Z,22.73
2018-12-03T11:43:26.203Z,23.63
2018-12-03T11:45:54.358Z,24.20
2018-12-03T11:48:22.337Z,23.17
2018-12-03T11:50:50.310Z,24.00
2018-12-03T11:53:18.468Z,25.03
2018-12-03T11:55:46.203Z,24.30
2018-12-03T11:58:13.879Z,23.23
2018-12-03T12:00:41.653Z,25.23
2018-12-03T12:03:09.603Z,24.20
2018-12-03T12:05:37.540Z,23.33
2018-12-03T12:08:05.585Z,26.07
2018-12-03T12:10:33.610Z,25.63
2018-12-03T12:13:01.686Z,24.07
2018-12-03T12:15:29.529Z,24.30
2018-12-03T12:17:57.570Z,25.13
2018-12-03T12:20:25.493Z,26.07
2018-12-03T12:22:53.315Z,24.97
2018-12-03T12:25:21.161Z,23.57
2018-12-03T12:27:52.027Z,23.87
2018-12-03T12:30:19.900Z,23.80
2018-12-03T12:32:47.553Z,23.33
2018-12-03T12:35:15.370Z,23.77
2018-12-03T12:37:43.155Z,24.70
2018-12-03T12:40:12.351Z,23.87
2018-12-03T12:42:40.919Z,24.00
2018-12-03T12:45:18.150Z,24.57
2018-12-03T12:47:46.017Z,26.13
2018-12-03T12:50:16.073Z,24.87
2018-12-03T12:52:43.921Z,26.17
2018-12-03T12:55:11.616Z,25.83
2018-12-03T12:57:39.397Z,24.50
2018-12-03T13:00:11.590Z,24.27
2018-12-03T13:02:39.333Z,24.70
2018-12-03T13:05:07.053Z,26.23
2018-12-03T13:07:34.811Z,24.87
2018-12-03T13:10:02.585Z,24.93
2018-12-03T13:12:30.389Z,23.50
2018-12-03T13:14:58.118Z,24.67
2018-12-03T13:17:25.901Z,25.53
2018-12-03T13:19:53.604Z,26.40
2018-12-03T13:22:33.529Z,25.93
2018-12-03T13:25:01.278Z,28.23
2018-12-03T13:27:29.182Z,27.70
2018-12-03T13:29:57.590Z,29.00
2018-12-03T13:32:25.315Z,27.33
2018-12-03T13:34:53.055Z,28.77
2018-12-03T13:37:20.777Z,28.33
2018-12-03T13:39:48.775Z,27.97
2018-12-03T13:42:16.675Z,27.53
2018-12-03T13:44:44.379Z,28.77
2018-12-03T13:47:12.265Z,27.83
2018-12-03T13:49:39.936Z,28.07
2018-12-03T13:52:07.741Z,27.57
2018-12-03T13:54:35.609Z,28.17
2018-12-03T13:57:03.465Z,25.93
2018-12-03T13:59:31.401Z,27.40
2018-12-03T14:01:59.173Z,26.13
2018-12-03T14:04:26.905Z,25.57
2018-12-03T14:07:14.154Z,25.23
2018-12-03T14:10:07.649Z,25.20
2018-12-03T14:12:42.120Z,25.80
2018-12-03T14:15:31.477Z,25.53
2018-12-03T14:18:16.663Z,27.20
2018-12-03T14:20:47.248Z,27.03
2018-12-03T14:23:17.864Z,27.50
2018-12-03T14:25:45.677Z,29.13
2018-12-03T14:28:13.589Z,28.67
2018-12-03T14:30:41.307Z,30.00
2018-12-03T14:33:09.075Z,30.00
2018-12-03T14:35:36.905Z,29.30
2018-12-03T14:38:19.456Z,30.00
2018-12-03T14:40:47.476Z,29.23
2018-12-03T14:43:15.175Z,28.87
2018-12-03T14:45:42.866Z,28.77
2018-12-03T14:48:10.586Z,29.03
2018-12-03T14:50:38.574Z,30.17
2018-12-03T14:53:07.861Z,30.90
2018-12-03T14:55:34.504Z,29.20
2018-12-03T14:58:02.453Z,29.53
2018-12-03T15:00:30.214Z,29.83
2018-12-03T15:02:58.053Z,30.00
2018-12-03T15:05:25.850Z,28.77
2018-12-03T15:07:53.686Z,30.20
2018-12-03T15:10:21.566Z,31.07
2018-12-03T15:12:49.230Z,30.07
2018-12-03T15:15:16.932Z,32.03
2018-12-03T15:17:45.018Z,30.90
2018-12-03T15:20:12.681Z,30.83
2018-12-03T15:22:40.521Z,29.90
2018-12-03T15:25:10.453Z,32.43
2018-12-03T15:27:38.204Z,32.57
2018-12-03T15:30:07.599Z,36.20
2018-12-03T15:32:35.498Z,38.53
2018-12-03T15:35:03.717Z,36.37
2018-12-03T15:37:31.413Z,36.73
2018-12-03T15:39:59.125Z,32.17
2018-12-03T15:42:26.817Z,33.40
2018-12-03T15:44:54.814Z,32.67
2018-12-03T15:47:22.798Z,33.27
2018-12-03T15:49:50.755Z,32.00
2018-12-03T15:52:18.745Z,31.63
2018-12-03T15:54:46.931Z,31.67
2018-12-03T15:57:14.860Z,33.30
2018-12-03T15:59:43.307Z,31.73
2018-12-03T16:02:11.912Z,30.47
2018-12-03T16:04:39.883Z,29.77
2018-12-03T16:07:08.193Z,30.60
2018-12-03T16:09:36.582Z,31.40
2018-12-03T16:12:04.849Z,35.90
2018-12-03T16:14:33.241Z,33.47
2018-12-03T16:17:01.632Z,31.63
2018-12-03T16:19:29.784Z,29.63
2018-12-03T16:21:58.031Z,34.00
2018-12-03T16:24:26.421Z,35.33
2018-12-03T16:26:54.908Z,33.97
2018-12-03T16:29:23.025Z,36.27
2018-12-03T16:31:51.457Z,42.87
2018-12-03T16:34:19.907Z,35.53
2018-12-03T16:36:49.051Z,38.90
2018-12-03T16:39:17.401Z,38.60
2018-12-03T16:41:46.185Z,36.07
2018-12-03T16:44:14.943Z,37.27
2018-12-03T16:46:43.699Z,36.77
2018-12-03T16:49:12.382Z,37.97
2018-12-03T16:51:40.959Z,38.07
2018-12-03T16:54:09.569Z,35.87
2018-12-03T16:56:38.031Z,34.73
2018-12-03T16:59:07.298Z,34.53
2018-12-03T17:01:35.891Z,33.07
2018-12-03T17:04:04.874Z,33.37
2018-12-03T17:06:33.642Z,37.73
2018-12-03T17:09:02.450Z,33.93
2018-12-03T17:11:31.097Z,36.13
2018-12-03T17:13:59.750Z,34.60
2018-12-03T17:16:28.499Z,35.73
2018-12-03T17:18:57.127Z,33.90
2018-12-03T17:22:36.367Z,36.30
2018-12-03T17:25:09.867Z,32.93
2018-12-03T17:27:38.806Z,34.73
2018-12-03T17:30:08.484Z,34.20
2018-12-03T17:32:37.268Z,35.93
2018-12-03T17:35:06.791Z,32.37
2018-12-03T17:37:36.580Z,34.80
2018-12-03T17:40:08.590Z,35.67
2018-12-03T17:43:10.412Z,35.53
2018-12-03T17:45:40.343Z,36.17
2018-12-03T17:48:10.068Z,39.73
2018-12-03T17:50:39.826Z,35.10
2018-12-03T17:53:09.250Z,33.03
2018-12-03T17:55:39.010Z,35.07
2018-12-03T17:58:08.879Z,34.87
2018-12-03T18:00:38.242Z,33.13
2018-12-03T18:03:08.020Z,34.43
2018-12-03T18:05:38.334Z,33.80
2018-12-03T18:08:08.503Z,33.43
2018-12-03T18:10:37.901Z,34.43
2018-12-03T18:13:07.607Z,36.23
2018-12-03T18:15:37.456Z,40.60
2018-12-03T18:18:06.960Z,38.07
2018-12-03T18:20:38.289Z,36.73
2018-12-03T18:23:07.586Z,36.80
2018-12-03T18:25:37.074Z,35.80
2018-12-03T18:28:07.557Z,36.23
2018-12-03T18:30:37.055Z,34.50
2018-12-03T18:33:06.562Z,33.87
2018-12-03T18:35:36.424Z,33.57
2018-12-03T18:38:05.990Z,33.40
2018-12-03T18:40:35.710Z,35.27
2018-12-03T18:43:05.076Z,34.23
2018-12-03T18:45:35.032Z,34.40
2018-12-03T18:48:04.976Z,34.07
2018-12-03T18:50:36.733Z,32.83
2018-12-03T18:53:16.891Z,33.77
2018-12-03T18:55:46.381Z,33.33
2018-12-03T18:58:19.419Z,32.80
2018-12-03T19:00:48.993Z,33.80
2018-12-03T19:03:20.407Z,36.77
2018-12-03T19:05:50.942Z,34.90
2018-12-03T19:08:20.650Z,33.80
2018-12-03T19:10:50.230Z,37.53
2018-12-03T19:13:20.517Z,35.87
2018-12-03T19:15:50.005Z,36.27
2018-12-03T19:18:19.905Z,37.07
2018-12-03T19:20:49.556Z,35.83
2018-12-03T19:23:18.897Z,37.47
2018-12-03T19:25:48.304Z,37.43
2018-12-03T19:28:17.663Z,37.43
2018-12-03T19:30:47.125Z,37.13
2018-12-03T19:33:16.783Z,37.67
2018-12-03T19:35:46.606Z,38.33
2018-12-03T19:38:16.038Z,39.50
2018-12-03T19:40:45.354Z,45.33
2018-12-03T19:43:15.001Z,40.70
2018-12-03T19:45:44.488Z,37.60
2018-12-03T19:48:13.933Z,39.27
2018-12-03T19:50:44.063Z,38.63
2018-12-03T19:53:16.080Z,38.33
2018-12-03T19:55:47.385Z,37.07
2018-12-03T19:58:23.239Z,38.20
2018-12-03T20:00:52.776Z,38.43
2018-12-03T20:03:23.254Z,37.80
2018-12-03T20:05:54.768Z,41.20
2018-12-03T20:08:25.495Z,41.80
2018-12-03T20:10:55.487Z,40.37
2018-12-03T20:13:25.265Z,41.03
2018-12-03T20:15:56.045Z,39.17
2018-12-03T20:18:26.699Z,40.10
2018-12-03T20:21:00.198Z,37.77
2018-12-03T20:23:34.949Z,37.90
2018-12-03T20:26:14.571Z,36.40
2018-12-03T20:28:53.021Z,40.63
2018-12-03T20:32:32.540Z,37.70
2018-12-03T20:35:24.252Z,37.07
2018-12-03T20:38:01.430Z,37.57
2018-12-03T20:40:40.360Z,38.73
2018-12-03T20:43:15.000Z,38.43
2018-12-03T20:46:09.347Z,39.30
2018-12-03T20:49:48.984Z,38.27
2018-12-03T20:52:22.805Z,39.07
2018-12-03T20:54:55.258Z,38.10
2018-12-03T20:57:25.536Z,36.13
2018-12-03T20:59:55.303Z,37.67
2018-12-03T21:02:25.686Z,39.00
2018-12-03T21:04:55.780Z,38.83
2018-12-03T21:07:25.432Z,38.93
2018-12-03T21:09:55.313Z,38.17
2018-12-03T21:12:25.015Z,39.90
2018-12-03T21:14:54.669Z,37.43
2018-12-03T21:17:24.415Z,36.90
2018-12-03T21:19:58.183Z,39.50
2018-12-03T21:22:27.943Z,38.10
2018-12-03T21:24:57.546Z,42.07
2018-12-03T21:27:27.505Z,39.83
2018-12-03T21:29:57.242Z,38.93
2018-12-03T21:32:27.216Z,38.70
2018-12-03T21:34:57.201Z,39.93
2018-12-03T21:37:27.090Z,37.67
2018-12-03T21:39:56.527Z,39.47
2018-12-03T21:42:27.011Z,40.40
2018-12-03T21:44:56.938Z,41.43
2018-12-03T21:47:26.353Z,38.70
2018-12-03T21:49:55.877Z,39.20
2018-12-03T21:52:25.339Z,39.17
2018-12-03T21:54:54.791Z,41.13
2018-12-03T21:57:24.278Z,39.83
2018-12-03T21:59:56.884Z,40.27
2018-12-03T22:02:25.417Z,39.03
2018-12-03T22:04:54.947Z,40.27
2018-12-03T22:07:24.251Z,38.07
2018-12-03T22:09:53.927Z,39.73
2018-12-03T22:12:23.223Z,40.70
2018-12-03T22:14:52.428Z,39.17
2018-12-03T22:17:21.708Z,40.27
2018-12-03T22:19:50.984Z,38.63
2018-12-03T22:22:20.084Z,38.87
2018-12-03T22:24:49.454Z,38.77
2018-12-03T22:27:18.261Z,39.13
2018-12-03T22:29:46.925Z,39.87
2018-12-03T22:32:15.701Z,36.43
2018-12-03T22:34:44.665Z,39.17
2018-12-03T22:37:13.504Z,37.87
2018-12-03T22:39:46.369Z,37.37
2018-12-03T22:42:12.919Z,38.17
2018-12-03T22:44:41.656Z,37.27
2018-12-03T22:47:10.150Z,36.93
2018-12-03T22:49:38.739Z,36.13
2018-12-03T22:52:07.495Z,37.47
2018-12-03T22:54:36.253Z,35.73
2018-12-03T22:57:04.873Z,36.67
2018-12-03T22:59:33.481Z,37.17
2018-12-03T23:02:02.302Z,37.50
2018-12-03T23:04:33.130Z,37.30
2018-12-03T23:07:01.721Z,36.07
2018-12-03T23:09:30.200Z,36.17
2018-12-03T23:11:58.832Z,36.63
2018-12-03T23:14:27.570Z,35.07
2018-12-03T23:16:56.102Z,35.80
2018-12-03T23:19:24.842Z,35.57
2018-12-03T23:21:53.454Z,36.30
2018-12-03T23:24:22.011Z,36.37
2018-12-03T23:26:50.845Z,35.80
2018-12-03T23:29:19.350Z,36.27
2018-12-03T23:31:47.997Z,35.87
2018-12-03T23:34:16.555Z,35.93
2018-12-03T23:36:45.264Z,37.03
2018-12-03T23:39:13.899Z,35.87
2018-12-03T23:41:42.583Z,34.87
2018-12-03T23:44:11.265Z,36.67
2018-12-03T23:46:39.938Z,36.57
2018-12-03T23:49:08.519Z,37.27
2018-12-03T23:51:37.102Z,37.30
2018-12-03T23:54:05.897Z,38.47
2018-12-03T23:56:34.703Z,38.40
2018-12-03T23:59:03.570Z,37.70
